Time;durP1;ratioP1;P1;durP2;ratioP2;P2;SDS_P1;SDS_P2;PMS_P1;PMS_P2;Temp;Humidity;BMP_temperature;BMP_pressure;BME280_temperature;BME280_humidity;BME280_pressure;Samples;Min_cycle;Max_cycle;Signal;HPM_P1;HPM_P2
2023/04/12 00:01:02;;;;;;;11.30;2.65;;;9.10;99.90;;;;;;5020918;28;20510;-64
2023/04/12 00:03:29;;;;;;;8.20;3.00;;;9.00;99.90;;;;;;5008985;28;20128;-66
2023/04/12 00:05:54;;;;;;;8.25;2.30;;;9.10;99.90;;;;;;5007928;28;20091;-66
2023/04/12 00:08:32;;;;;;;11.55;2.80;;;9.10;99.90;;;;;;5026354;28;20041;-65
2023/04/12 00:11:02;;;;;;;9.00;2.80;;;9.10;99.90;;;;;;5023881;28;20049;-65
2023/04/12 00:13:28;;;;;;;10.77;2.63;;;9.20;99.90;;;;;;5019404;28;20120;-65
2023/04/12 00:15:53;;;;;;;11.00;2.60;;;9.10;99.90;;;;;;5028524;28;20037;-65
2023/04/12 00:18:20;;;;;;;9.55;2.72;;;9.10;99.90;;;;;;5027626;28;20384;-65
2023/04/12 00:20:46;;;;;;;13.20;2.65;;;9.20;99.90;;;;;;5026812;28;20362;-65
2023/04/12 00:23:12;;;;;;;9.65;2.60;;;9.20;99.90;;;;;;5010712;28;20041;-65
2023/04/12 00:25:38;;;;;;;9.57;2.85;;;9.20;99.90;;;;;;5029706;28;20045;-65
2023/04/12 00:28:04;;;;;;;8.75;2.55;;;9.20;99.90;;;;;;5013912;28;20095;-65
2023/04/12 00:30:30;;;;;;;10.48;2.65;;;9.20;99.90;;;;;;5016574;28;20131;-65
2023/04/12 00:32:56;;;;;;;9.38;2.42;;;9.30;99.90;;;;;;5017741;28;20503;-65
2023/04/12 00:35:21;;;;;;;11.60;3.25;;;9.30;99.90;;;;;;5017036;28;20525;-65
2023/04/12 00:37:47;;;;;;;7.93;2.13;;;9.30;99.90;;;;;;5030002;28;20491;-65
2023/04/12 00:40:13;;;;;;;8.20;2.63;;;9.40;99.90;;;;;;5012562;28;20136;-64
2023/04/12 00:42:38;;;;;;;12.13;2.80;;;9.40;99.90;;;;;;5007561;28;20117;-65
2023/04/12 00:45:05;;;;;;;9.30;2.72;;;9.40;99.90;;;;;;5026954;28;20359;-65
2023/04/12 00:47:33;;;;;;;12.60;2.72;;;9.40;99.90;;;;;;5010975;28;20125;-62
2023/04/12 00:50:00;;;;;;;11.23;2.63;;;9.40;99.90;;;;;;5029367;28;20384;-65
2023/04/12 00:52:27;;;;;;;8.05;2.67;;;9.40;99.90;;;;;;5021478;28;20116;-65
2023/04/12 00:54:53;;;;;;;10.55;2.70;;;9.40;99.90;;;;;;5011082;28;20033;-66
2023/04/12 00:57:18;;;;;;;8.48;2.45;;;9.40;99.90;;;;;;5010643;28;20048;-65
2023/04/12 00:59:45;;;;;;;9.15;2.78;;;9.30;99.90;;;;;;5028335;28;20041;-66
2023/04/12 01:02:11;;;;;;;8.63;2.53;;;9.30;99.90;;;;;;5023843;28;20069;-66
2023/04/12 01:04:38;;;;;;;11.93;3.08;;;9.30;99.90;;;;;;5026663;28;20141;-65
2023/04/12 01:07:18;;;;;;;13.88;3.20;;;9.20;99.90;;;;;;5014815;28;20053;-64
2023/04/12 01:10:11;;;;;;;12.88;2.95;;;9.20;99.90;;;;;;5022187;28;20037;-66
2023/04/12 01:12:57;;;;;;;9.80;3.00;;;9.20;99.90;;;;;;5024821;28;20045;-66
2023/04/12 01:15:25;;;;;;;13.00;3.08;;;9.20;99.90;;;;;;5026655;28;20040;-65
2023/04/12 01:18:02;;;;;;;9.63;2.72;;;9.10;99.90;;;;;;5024325;28;20554;-65
2023/04/12 01:20:38;;;;;;;10.48;2.38;;;9.20;99.90;;;;;;5025203;28;20495;-66
2023/04/12 01:23:34;;;;;;;9.30;2.45;;;9.10;99.90;;;;;;5021540;28;20423;-68
2023/04/12 01:26:20;;;;;;;7.53;2.25;;;9.10;99.90;;;;;;5005653;28;20124;-66
2023/04/12 01:28:51;;;;;;;8.90;2.30;;;9.10;99.90;;;;;;5029862;28;20048;-66
2023/04/12 01:31:18;;;;;;;8.98;2.17;;;9.10;99.90;;;;;;5007422;28;20065;-65
2023/04/12 01:33:45;;;;;;;5.88;2.22;;;9.10;99.90;;;;;;5017247;28;20517;-66
2023/04/12 01:36:17;;;;;;;9.00;2.28;;;9.10;99.90;;;;;;5023927;28;20092;-65
2023/04/12 01:38:43;;;;;;;8.30;2.28;;;9.00;99.90;;;;;;5029657;28;20037;-63
2023/04/12 01:41:09;;;;;;;9.05;2.20;;;9.00;99.90;;;;;;5026148;28;20096;-66
2023/04/12 01:43:43;;;;;;;11.88;2.78;;;9.00;99.90;;;;;;5026803;28;20045;-66
2023/04/12 01:46:10;;;;;;;11.60;2.63;;;9.00;99.90;;;;;;5021886;28;20102;-66
2023/04/12 01:48:37;;;;;;;10.68;2.30;;;9.00;99.90;;;;;;5029357;28;20438;-65
2023/04/12 01:51:13;;;;;;;5.55;2.17;;;9.00;99.90;;;;;;5025003;28;20168;-64
2023/04/12 01:53:48;;;;;;;11.48;2.90;;;9.00;99.90;;;;;;5017472;28;20488;-66
2023/04/12 01:56:17;;;;;;;7.05;2.28;;;9.00;99.90;;;;;;5027757;28;20124;-65
2023/04/12 01:58:45;;;;;;;6.70;2.10;;;9.00;99.90;;;;;;5012040;28;20541;-66
2023/04/12 02:01:14;;;;;;;7.18;2.10;;;9.00;99.90;;;;;;5026184;28;20561;-66
2023/04/12 02:03:44;;;;;;;14.90;3.05;;;8.90;99.90;;;;;;5009523;28;20484;-65
2023/04/12 02:06:10;;;;;;;7.45;2.40;;;8.90;99.90;;;;;;5029074;28;20037;-65
2023/04/12 02:08:36;;;;;;;9.20;2.13;;;8.90;99.90;;;;;;5026221;28;20408;-66
2023/04/12 02:11:11;;;;;;;8.32;2.45;;;8.90;99.90;;;;;;5024595;28;20041;-66
2023/04/12 02:13:37;;;;;;;10.52;2.60;;;8.90;99.90;;;;;;5020001;28;20042;-66
2023/04/12 02:16:06;;;;;;;9.82;2.40;;;8.90;99.90;;;;;;5025384;28;20037;-66
2023/04/12 02:18:34;;;;;;;9.95;2.60;;;8.90;99.90;;;;;;5027870;28;20045;-64
2023/04/12 02:20:59;;;;;;;10.95;2.85;;;8.90;99.90;;;;;;5026259;28;20042;-66
2023/04/12 02:23:25;;;;;;;11.25;2.53;;;8.90;99.90;;;;;;5011792;28;20052;-66
2023/04/12 02:25:51;;;;;;;9.48;2.60;;;8.90;99.90;;;;;;5024662;28;20044;-66
2023/04/12 02:28:17;;;;;;;10.32;2.58;;;8.90;99.90;;;;;;5028806;28;20404;-66
2023/04/12 02:30:42;;;;;;;8.43;2.20;;;8.80;99.90;;;;;;5029522;28;20034;-65
2023/04/12 02:33:08;;;;;;;9.65;2.50;;;8.90;99.90;;;;;;5020841;28;20446;-66
2023/04/12 02:35:37;;;;;;;9.00;2.63;;;8.80;99.90;;;;;;5028678;28;20045;-66
2023/04/12 02:38:06;;;;;;;5.72;2.20;;;8.90;99.90;;;;;;5021072;28;20116;-66
2023/04/12 02:40:33;;;;;;;7.00;2.53;;;8.90;99.90;;;;;;5028176;28;20029;-66
2023/04/12 02:42:59;;;;;;;10.27;2.38;;;8.90;99.90;;;;;;5026710;28;20038;-66
2023/04/12 02:45:25;;;;;;;10.95;2.75;;;8.90;99.90;;;;;;5022747;28;20033;-64
2023/04/12 02:47:50;;;;;;;6.80;2.13;;;8.90;99.90;;;;;;5011836;28;20041;-66
2023/04/12 02:50:16;;;;;;;9.07;2.30;;;8.90;99.90;;;;;;5025273;28;20076;-66
2023/04/12 02:52:41;;;;;;;7.60;2.30;;;8.90;99.90;;;;;;5025823;28;20037;-66
2023/04/12 02:55:07;;;;;;;6.07;1.98;;;8.90;99.90;;;;;;5026405;28;20041;-65
2023/04/12 02:57:33;;;;;;;8.27;2.38;;;8.80;99.90;;;;;;5029808;28;20044;-66
2023/04/12 02:59:59;;;;;;;11.05;2.45;;;8.80;99.90;;;;;;5030045;28;20120;-66
2023/04/12 03:02:24;;;;;;;6.25;1.98;;;8.80;99.90;;;;;;5004579;28;20100;-66
2023/04/12 03:04:50;;;;;;;6.88;1.80;;;8.80;99.90;;;;;;5012186;28;20048;-66
2023/04/12 03:07:17;;;;;;;7.82;1.92;;;8.80;99.90;;;;;;5022436;28;20044;-65
2023/04/12 03:09:44;;;;;;;10.63;2.40;;;8.80;99.90;;;;;;5033616;28;20391;-64
2023/04/12 03:12:10;;;;;;;8.68;2.05;;;8.80;99.90;;;;;;5026097;28;20030;-66
2023/04/12 03:14:36;;;;;;;6.45;2.10;;;8.80;99.90;;;;;;5031945;28;20122;-65
2023/04/12 03:17:01;;;;;;;5.28;1.85;;;8.80;99.90;;;;;;5029163;28;20132;-66
2023/04/12 03:19:28;;;;;;;6.53;2.17;;;8.80;99.90;;;;;;5037851;28;20080;-67
2023/04/12 03:21:53;;;;;;;6.75;1.95;;;8.80;99.90;;;;;;5023647;28;20056;-66
2023/04/12 03:24:19;;;;;;;10.88;2.45;;;8.80;99.90;;;;;;5021141;22;20050;-66
2023/04/12 03:26:45;;;;;;;5.03;1.83;;;8.80;99.90;;;;;;4991621;28;20033;-65
2023/04/12 03:29:11;;;;;;;8.10;2.20;;;8.80;99.90;;;;;;4989343;28;20042;-65
2023/04/12 03:31:36;;;;;;;6.07;1.80;;;8.80;99.90;;;;;;5002942;28;20508;-65
2023/04/12 03:34:02;;;;;;;7.60;2.50;;;8.80;99.90;;;;;;5006401;28;20026;-66
2023/04/12 03:36:29;;;;;;;8.57;2.30;;;8.80;99.90;;;;;;5007709;28;20474;-66
2023/04/12 03:38:55;;;;;;;6.80;2.30;;;8.70;99.90;;;;;;5007622;28;20034;-65
2023/04/12 03:41:22;;;;;;;6.32;2.22;;;8.80;99.90;;;;;;5000380;28;20107;-65
2023/04/12 03:43:47;;;;;;;7.35;2.20;;;8.80;99.90;;;;;;4988279;28;20064;-66
2023/04/12 03:46:14;;;;;;;7.75;2.28;;;8.80;99.90;;;;;;5011525;28;20038;-65
2023/04/12 03:48:40;;;;;;;7.70;2.60;;;8.80;99.90;;;;;;4998389;28;20042;-66
2023/04/12 03:51:07;;;;;;;7.22;2.80;;;8.70;99.90;;;;;;5004405;28;20038;-65
2023/04/12 03:53:33;;;;;;;10.57;2.88;;;8.80;99.90;;;;;;4989074;28;20076;-66
2023/04/12 03:55:59;;;;;;;10.55;3.05;;;8.80;99.90;;;;;;5001563;28;20125;-66
2023/04/12 03:58:24;;;;;;;5.72;2.60;;;8.80;99.90;;;;;;5003448;28;20097;-66
2023/04/12 04:00:50;;;;;;;6.90;2.95;;;8.80;99.90;;;;;;4997819;28;20042;-66
2023/04/12 04:03:16;;;;;;;10.25;3.33;;;8.80;99.90;;;;;;5009774;28;20034;-66
2023/04/12 04:05:42;;;;;;;9.48;3.60;;;8.80;99.90;;;;;;4999564;28;20037;-66
2023/04/12 04:08:08;;;;;;;10.82;3.38;;;8.80;99.90;;;;;;5001924;28;20511;-66
2023/04/12 04:10:34;;;;;;;9.75;3.72;;;8.80;99.90;;;;;;4998431;28;20519;-66
2023/04/12 04:13:00;;;;;;;10.65;3.63;;;8.70;99.90;;;;;;4996180;28;20065;-66
2023/04/12 04:15:26;;;;;;;10.23;4.50;;;8.70;99.90;;;;;;4993145;28;20066;-66
2023/04/12 04:17:52;;;;;;;11.70;4.35;;;8.70;99.90;;;;;;4996639;28;20042;-66
2023/04/12 04:20:18;;;;;;;10.65;4.43;;;8.70;99.90;;;;;;4985325;28;20041;-66
2023/04/12 04:22:46;;;;;;;10.15;4.28;;;8.70;99.90;;;;;;4990182;28;20571;-66
2023/04/12 04:25:13;;;;;;;10.20;4.65;;;8.70;99.90;;;;;;4999206;28;20042;-66
2023/04/12 04:27:40;;;;;;;10.88;3.97;;;8.70;99.90;;;;;;4982108;28;20052;-66
2023/04/12 04:30:06;;;;;;;9.30;4.45;;;8.70;99.90;;;;;;5005293;28;20050;-66
2023/04/12 04:32:34;;;;;;;10.55;4.07;;;8.70;99.90;;;;;;5001474;28;20052;-67
2023/04/12 04:34:59;;;;;;;10.98;4.47;;;8.70;99.90;;;;;;4999189;28;20045;-66
2023/04/12 04:37:26;;;;;;;10.00;3.92;;;8.70;99.90;;;;;;4997037;28;20046;-67
2023/04/12 04:39:52;;;;;;;9.77;3.90;;;9.50;99.90;;;;;;4960935;28;20471;-67
2023/04/12 04:42:17;;;;;;;10.80;3.40;;;8.70;99.90;;;;;;5000724;28;20112;-67
2023/04/12 04:44:43;;;;;;;6.97;3.40;;;8.70;99.90;;;;;;4985436;28;20381;-67
2023/04/12 04:47:09;;;;;;;11.50;3.72;;;8.70;99.90;;;;;;5001921;28;20044;-67
2023/04/12 04:49:37;;;;;;;9.70;3.65;;;8.60;99.90;;;;;;4989217;28;20121;-68
2023/04/12 04:52:03;;;;;;;9.52;3.45;;;8.60;99.90;;;;;;4981135;28;20045;-68
2023/04/12 04:54:30;;;;;;;7.90;3.95;;;8.60;99.90;;;;;;5006168;28;20046;-68
2023/04/12 04:56:56;;;;;;;8.40;3.10;;;8.60;99.90;;;;;;5003296;28;20048;-68
2023/04/12 04:59:22;;;;;;;8.45;3.10;;;8.60;99.90;;;;;;4998560;28;20041;-67
2023/04/12 05:01:48;;;;;;;8.77;2.92;;;8.60;99.90;;;;;;5004790;28;20046;-67
2023/04/12 05:04:14;;;;;;;9.20;3.30;;;8.50;99.90;;;;;;4987698;28;20092;-68
2023/04/12 05:06:39;;;;;;;9.85;3.08;;;8.50;99.90;;;;;;5008995;28;20034;-67
2023/04/12 05:09:05;;;;;;;8.20;2.88;;;8.50;99.90;;;;;;4998405;28;20038;-67
2023/04/12 05:11:30;;;;;;;8.88;2.88;;;8.50;99.90;;;;;;4999147;28;20034;-67
2023/04/12 05:13:56;;;;;;;10.48;2.85;;;8.50;99.90;;;;;;5002827;28;20573;-67
2023/04/12 05:16:22;;;;;;;10.55;2.70;;;8.50;99.90;;;;;;5008590;28;20407;-67
2023/04/12 05:18:47;;;;;;;7.00;3.00;;;8.50;99.90;;;;;;4997871;28;20120;-67
2023/04/12 05:21:13;;;;;;;6.93;3.08;;;8.50;99.90;;;;;;4987217;28;20081;-67
2023/04/12 05:23:43;;;;;;;8.32;3.05;;;8.40;99.90;;;;;;5009655;28;20038;-68
2023/04/12 05:26:09;;;;;;;6.18;2.60;;;8.50;99.90;;;;;;5002219;28;20038;-67
2023/04/12 05:28:35;;;;;;;4.53;2.38;;;8.40;99.90;;;;;;5007973;28;20092;-67
2023/04/12 05:31:01;;;;;;;8.43;2.70;;;8.40;99.90;;;;;;4998548;28;20157;-67
2023/04/12 05:33:26;;;;;;;5.45;2.53;;;8.40;99.90;;;;;;4982344;28;20050;-67
2023/04/12 05:35:52;;;;;;;6.55;2.15;;;8.40;99.90;;;;;;5001638;28;20038;-67
2023/04/12 05:38:17;;;;;;;7.18;2.55;;;8.40;99.90;;;;;;5004312;28;20045;-67
2023/04/12 05:40:43;;;;;;;5.55;2.40;;;8.40;99.90;;;;;;4989569;28;20026;-67
2023/04/12 05:43:11;;;;;;;8.15;2.42;;;8.40;99.90;;;;;;5006485;28;20499;-67
2023/04/12 05:45:40;;;;;;;7.85;2.53;;;8.40;99.90;;;;;;4996040;28;20030;-68
2023/04/12 05:48:06;;;;;;;7.35;2.10;;;8.40;99.90;;;;;;5006056;28;20041;-67
2023/04/12 05:50:32;;;;;;;6.03;2.13;;;8.40;99.90;;;;;;5001961;28;20393;-67
2023/04/12 05:53:00;;;;;;;7.25;2.35;;;8.40;99.90;;;;;;4985176;28;20044;-67
2023/04/12 05:55:26;;;;;;;6.97;2.38;;;8.40;99.90;;;;;;5003025;28;20034;-67
2023/04/12 05:57:52;;;;;;;8.45;2.45;;;8.40;99.90;;;;;;5001946;28;20547;-67
2023/04/12 06:00:20;;;;;;;5.65;2.13;;;8.40;99.90;;;;;;4999250;28;20124;-67
2023/04/12 06:02:47;;;;;;;4.60;2.40;;;8.40;99.90;;;;;;4999345;28;20045;-66
2023/04/12 06:05:13;;;;;;;7.07;2.50;;;8.40;99.90;;;;;;4984587;28;20034;-67
2023/04/12 06:07:45;;;;;;;6.75;2.63;;;8.40;99.90;;;;;;4998755;28;20042;-67
2023/04/12 06:10:11;;;;;;;6.93;2.88;;;8.40;99.90;;;;;;4990459;28;20039;-67
2023/04/12 06:12:37;;;;;;;6.93;2.60;;;8.40;99.90;;;;;;4997757;28;20378;-67
2023/04/12 06:15:03;;;;;;;6.05;2.33;;;8.40;99.90;;;;;;4998680;28;20128;-67
2023/04/12 06:17:29;;;;;;;5.82;2.55;;;8.40;99.90;;;;;;4994559;28;20044;-67
2023/04/12 06:19:54;;;;;;;6.70;2.72;;;8.40;99.90;;;;;;4977147;28;20046;-67
2023/04/12 06:22:20;;;;;;;8.18;2.72;;;8.40;99.90;;;;;;5008862;28;20038;-67
2023/04/12 06:24:45;;;;;;;5.28;2.50;;;8.40;99.90;;;;;;5001622;28;20034;-67
2023/04/12 06:27:11;;;;;;;8.13;2.80;;;8.40;99.90;;;;;;5009278;28;20088;-67
2023/04/12 06:29:36;;;;;;;6.32;3.15;;;8.40;99.90;;;;;;5003390;28;20133;-67
2023/04/12 06:32:02;;;;;;;7.32;2.92;;;8.40;99.90;;;;;;5010356;28;20107;-67
2023/04/12 06:34:28;;;;;;;7.82;2.65;;;8.30;99.90;;;;;;5002189;28;20125;-67
2023/04/12 06:36:53;;;;;;;5.25;2.67;;;8.40;99.90;;;;;;5003019;28;20022;-67
2023/04/12 06:39:19;;;;;;;5.47;2.60;;;8.40;99.90;;;;;;5002155;28;20046;-67
2023/04/12 06:41:49;;;;;;;5.15;2.97;;;8.40;99.90;;;;;;5001605;28;20393;-67
2023/04/12 06:44:15;;;;;;;6.68;3.03;;;8.40;99.90;;;;;;4983230;28;20405;-67
2023/04/12 06:46:41;;;;;;;6.45;2.75;;;8.40;99.90;;;;;;5000495;28;20033;-67
2023/04/12 06:49:06;;;;;;;8.52;3.00;;;8.40;99.90;;;;;;4992825;28;20041;-67
2023/04/12 06:51:34;;;;;;;6.20;2.90;;;8.40;99.90;;;;;;4979977;28;20448;-68
2023/04/12 06:54:00;;;;;;;6.05;3.00;;;8.40;99.90;;;;;;4984192;28;20377;-67
2023/04/12 06:56:26;;;;;;;5.18;3.42;;;8.40;99.90;;;;;;5007550;28;20548;-67
2023/04/12 06:58:51;;;;;;;5.40;3.05;;;8.40;99.90;;;;;;5018477;28;20069;-67
2023/04/12 07:01:17;;;;;;;6.22;2.83;;;8.40;99.90;;;;;;4991922;28;20045;-67
2023/04/12 07:03:43;;;;;;;5.28;3.13;;;8.40;99.90;;;;;;5010939;28;20049;-67
2023/04/12 07:06:08;;;;;;;5.25;3.08;;;8.40;99.90;;;;;;4979335;28;20042;-67
2023/04/12 07:08:35;;;;;;;5.80;3.38;;;8.40;99.90;;;;;;4981709;28;20042;-67
2023/04/12 07:11:02;;;;;;;6.68;3.50;;;8.40;99.90;;;;;;4998702;28;20093;-67
2023/04/12 07:13:27;;;;;;;6.07;3.20;;;8.30;99.90;;;;;;5010804;28;20457;-67
2023/04/12 07:15:53;;;;;;;8.50;3.92;;;8.40;99.90;;;;;;5014730;28;20121;-67
2023/04/12 07:18:20;;;;;;;8.18;3.70;;;8.30;99.90;;;;;;5018529;28;20044;-67
2023/04/12 07:20:51;;;;;;;7.18;3.70;;;8.40;99.90;;;;;;4996135;28;20042;-68
2023/04/12 07:23:17;;;;;;;7.90;4.00;;;8.40;99.90;;;;;;5012502;28;20033;-67
2023/04/12 07:25:43;;;;;;;8.45;3.90;;;8.40;99.90;;;;;;5007018;28;20531;-67
2023/04/12 07:28:09;;;;;;;5.30;3.85;;;8.40;99.90;;;;;;5011841;28;20459;-67
2023/04/12 07:30:35;;;;;;;7.72;4.07;;;8.40;99.90;;;;;;5001223;28;20034;-67
2023/04/12 07:33:04;;;;;;;6.60;3.80;;;8.40;99.90;;;;;;5001148;28;20030;-67
2023/04/12 07:35:30;;;;;;;6.90;4.13;;;8.40;99.90;;;;;;4998929;28;20037;-67
2023/04/12 07:37:56;;;;;;;6.50;4.10;;;8.40;99.90;;;;;;5011705;28;20399;-67
2023/04/12 07:40:22;;;;;;;7.55;4.30;;;8.40;99.90;;;;;;4997236;28;20226;-67
2023/04/12 07:42:47;;;;;;;6.60;4.05;;;8.40;99.90;;;;;;5009624;28;20073;-67
2023/04/12 07:45:13;;;;;;;7.03;4.38;;;8.40;99.90;;;;;;4994123;28;20069;-67
2023/04/12 07:47:39;;;;;;;7.85;4.38;;;8.70;99.90;;;;;;5004082;28;20049;-67
2023/04/12 07:50:05;;;;;;;6.38;4.18;;;8.40;99.90;;;;;;4999832;28;20473;-67
2023/04/12 07:52:31;;;;;;;7.22;4.43;;;8.40;99.90;;;;;;5010348;28;20092;-67
2023/04/12 07:54:57;;;;;;;11.73;5.00;;;8.40;99.90;;;;;;4981882;28;20034;-67
2023/04/12 07:57:23;;;;;;;6.93;5.05;;;8.40;99.90;;;;;;4979958;28;20045;-67
2023/04/12 07:59:49;;;;;;;8.23;4.82;;;8.40;99.90;;;;;;4995337;28;20034;-67
2023/04/12 08:02:23;;;;;;;6.80;5.20;;;8.40;99.90;;;;;;5003880;28;20109;-67
2023/04/12 08:04:49;;;;;;;7.38;5.10;;;8.50;99.90;;;;;;4994406;28;20053;-67
2023/04/12 08:07:15;;;;;;;6.78;4.75;;;8.50;99.90;;;;;;5002530;28;20058;-67
2023/04/12 08:09:40;;;;;;;8.95;5.43;;;8.50;99.90;;;;;;5003639;28;20562;-67
2023/04/12 08:12:06;;;;;;;7.28;5.32;;;8.50;99.90;;;;;;5010374;28;20030;-67
2023/04/12 08:14:32;;;;;;;7.72;5.38;;;8.50;99.90;;;;;;5003575;28;20034;-67
2023/04/12 08:16:57;;;;;;;8.50;5.40;;;8.50;99.90;;;;;;4988703;28;20050;-67
2023/04/12 08:19:23;;;;;;;9.90;5.57;;;8.50;99.90;;;;;;5004683;28;20038;-67
2023/04/12 08:21:49;;;;;;;6.78;5.88;;;8.50;99.90;;;;;;5002417;28;20408;-67
2023/04/12 08:24:14;;;;;;;8.55;5.22;;;8.50;99.90;;;;;;5010578;28;20088;-67
2023/04/12 08:26:40;;;;;;;7.43;5.80;;;8.60;99.90;;;;;;5006854;28;20502;-67
2023/04/12 08:29:06;;;;;;;7.28;5.07;;;8.60;99.90;;;;;;4987323;28;20037;-67
2023/04/12 08:31:32;;;;;;;7.55;5.57;;;8.70;99.90;;;;;;4982893;28;20049;-67
2023/04/12 08:33:58;;;;;;;7.68;5.80;;;8.70;99.90;;;;;;5002811;28;20073;-67
2023/04/12 08:36:26;;;;;;;7.20;5.50;;;8.70;99.90;;;;;;4989844;28;20108;-67
2023/04/12 08:38:54;;;;;;;9.55;6.28;;;8.60;99.90;;;;;;5000467;28;20082;-67
2023/04/12 08:41:20;;;;;;;7.97;5.55;;;8.60;99.90;;;;;;4982083;28;20047;-67
2023/04/12 08:43:47;;;;;;;11.73;6.13;;;8.60;99.90;;;;;;5004411;28;20038;-67
2023/04/12 08:46:16;;;;;;;8.25;5.88;;;8.60;99.90;;;;;;5004027;28;20092;-67
2023/04/12 08:48:47;;;;;;;7.75;5.43;;;8.70;99.90;;;;;;5009246;28;20046;-67
2023/04/12 08:51:14;;;;;;;8.43;6.30;;;8.70;99.90;;;;;;4991852;28;20079;-67
2023/04/12 08:53:40;;;;;;;8.65;5.97;;;8.70;99.90;;;;;;4978784;28;20042;-67
2023/04/12 08:56:10;;;;;;;8.13;6.35;;;8.80;99.90;;;;;;4999225;28;20037;-67
2023/04/12 08:58:39;;;;;;;9.32;5.88;;;8.80;99.90;;;;;;4980498;28;20049;-67
2023/04/12 09:01:10;;;;;;;8.13;5.97;;;8.80;99.90;;;;;;5005512;28;20034;-67
2023/04/12 09:03:36;;;;;;;10.35;5.70;;;8.80;99.90;;;;;;4988011;28;20499;-67
2023/04/12 09:06:05;;;;;;;8.27;5.25;;;8.80;99.90;;;;;;4994661;28;20041;-67
2023/04/12 09:08:31;;;;;;;7.25;5.25;;;9.10;99.90;;;;;;4989872;28;20054;-67
2023/04/12 09:10:57;;;;;;;6.50;5.40;;;8.80;99.90;;;;;;4985167;28;20492;-67
2023/04/12 09:13:38;;;;;;;8.13;5.65;;;8.90;99.90;;;;;;4993491;28;20038;-67
2023/04/12 09:16:04;;;;;;;9.88;5.50;;;9.00;99.90;;;;;;5006716;28;20058;-67
2023/04/12 09:18:29;;;;;;;7.65;5.65;;;9.20;99.90;;;;;;4994602;28;20053;-67
2023/04/12 09:21:08;;;;;;;8.18;5.82;;;9.30;99.90;;;;;;4980887;28;20042;-67
2023/04/12 09:23:37;;;;;;;8.38;4.93;;;9.40;99.90;;;;;;5005732;28;20037;-68
2023/04/12 09:26:07;;;;;;;6.40;5.10;;;9.50;99.90;;;;;;4977146;28;20038;-68
2023/04/12 09:28:32;;;;;;;6.55;4.80;;;9.60;99.90;;;;;;5001613;28;20038;-68
2023/04/12 09:30:59;;;;;;;7.43;5.28;;;9.60;99.90;;;;;;4984881;28;20176;-68
2023/04/12 09:33:38;;;;;;;8.70;5.35;;;9.60;99.90;;;;;;4998511;28;20034;-68
2023/04/12 09:36:13;;;;;;;8.93;5.53;;;9.60;99.90;;;;;;4987330;28;20038;-68
2023/04/12 09:38:40;;;;;;;7.57;5.28;;;9.70;99.90;;;;;;5001758;28;20041;-67
2023/04/12 09:41:21;;;;;;;7.15;5.18;;;9.70;99.90;;;;;;5003765;28;20457;-67
2023/04/12 09:43:47;;;;;;;8.98;5.18;;;9.70;99.90;;;;;;5001112;28;20038;-66
2023/04/12 09:46:13;;;;;;;9.73;5.13;;;9.70;99.90;;;;;;5002880;28;20047;-66
2023/04/12 09:48:40;;;;;;;11.80;4.50;;;9.70;99.90;;;;;;4996976;28;20045;-67
2023/04/12 09:51:06;;;;;;;7.90;4.28;;;9.80;99.90;;;;;;5006833;28;20045;-65
2023/04/12 09:53:35;;;;;;;8.00;4.10;;;9.90;99.90;;;;;;5006179;28;20045;-67
2023/04/12 09:56:02;;;;;;;12.20;4.85;;;10.00;99.90;;;;;;4993906;28;20034;-67
2023/04/12 09:58:30;;;;;;;8.82;4.30;;;10.20;99.90;;;;;;4995910;28;20057;-66
2023/04/12 10:00:58;;;;;;;10.70;4.03;;;10.30;99.90;;;;;;5013801;28;20046;-66
2023/04/12 10:03:24;;;;;;;10.35;3.85;;;10.50;99.90;;;;;;4989058;28;20038;-65
2023/04/12 10:05:50;;;;;;;9.50;4.13;;;10.70;99.90;;;;;;4999340;28;20092;-66
2023/04/12 10:08:16;;;;;;;9.85;3.92;;;10.70;99.90;;;;;;5003442;28;20034;-66
2023/04/12 10:10:45;;;;;;;9.18;4.78;;;10.70;99.90;;;;;;5006221;28;20042;-64
2023/04/12 10:13:11;;;;;;;11.18;3.97;;;10.70;99.90;;;;;;4983110;28;20187;-66
2023/04/12 10:15:38;;;;;;;12.57;4.43;;;10.70;99.90;;;;;;5007844;28;20045;-67
2023/04/12 10:18:06;;;;;;;13.73;4.20;;;10.90;99.90;;;;;;5007821;28;20117;-67
2023/04/12 10:20:32;;;;;;;9.95;4.03;;;11.20;99.90;;;;;;5008574;28;20117;-66
2023/04/12 10:22:58;;;;;;;7.13;3.90;;;11.30;99.90;;;;;;4991948;28;20628;-67
2023/04/12 10:25:25;;;;;;;8.75;3.80;;;11.50;99.90;;;;;;4986668;28;20159;-67
2023/04/12 10:27:51;;;;;;;9.20;3.28;;;11.70;99.90;;;;;;4995054;28;21153;-66
2023/04/12 10:30:30;;;;;;;11.95;3.67;;;11.80;99.90;;;;;;5010802;28;20046;-67
2023/04/12 10:33:02;;;;;;;12.40;3.60;;;12.00;99.90;;;;;;5009827;28;20543;-67
2023/04/12 10:35:29;;;;;;;12.52;3.03;;;12.30;99.90;;;;;;5009349;28;20046;-67
2023/04/12 10:38:03;;;;;;;10.00;2.78;;;12.50;99.90;;;;;;5010002;28;20340;-67
2023/04/12 10:40:30;;;;;;;13.45;3.03;;;12.60;99.90;;;;;;4991996;28;20120;-67
2023/04/12 10:43:17;;;;;;;17.48;3.03;;;12.60;99.90;;;;;;5002952;28;20096;-67
2023/04/12 10:45:43;;;;;;;10.27;3.10;;;12.60;99.90;;;;;;5007169;28;20456;-66
2023/04/12 10:48:37;;;;;;;9.88;2.83;;;12.60;99.90;;;;;;5010295;28;20042;-67
2023/04/12 10:51:27;;;;;;;14.75;3.28;;;12.40;99.90;;;;;;5001701;28;20126;-66
2023/04/12 10:54:15;;;;;;;10.40;2.60;;;12.30;99.90;;;;;;5006579;28;20038;-67
2023/04/12 10:56:46;;;;;;;11.77;2.90;;;12.10;99.90;;;;;;4965332;28;20056;-67
2023/04/12 10:59:13;;;;;;;13.05;3.00;;;12.10;99.90;;;;;;5002264;28;20072;-66
2023/04/12 11:01:40;;;;;;;15.60;3.20;;;12.20;99.90;;;;;;5004398;28;20061;-67
2023/04/12 11:04:12;;;;;;;10.70;3.05;;;12.30;99.90;;;;;;4995437;28;20038;-66
2023/04/12 11:06:56;;;;;;;8.57;2.47;;;12.30;99.90;;;;;;5004207;28;20037;-67
2023/04/12 11:09:29;;;;;;;10.60;2.65;;;12.40;99.90;;;;;;5007986;28;20316;-66
2023/04/12 11:12:15;;;;;;;10.82;3.00;;;12.60;99.90;;;;;;4984521;28;20136;-66
2023/04/12 11:14:48;;;;;;;11.23;2.53;;;12.80;99.90;;;;;;4981840;28;20065;-66
2023/04/12 11:17:14;;;;;;;17.10;2.95;;;12.90;99.90;;;;;;5006325;28;20038;-67
2023/04/12 11:19:44;;;;;;;10.95;3.00;;;13.00;99.90;;;;;;4984555;28;20111;-66
2023/04/12 11:22:14;;;;;;;11.32;3.20;;;12.90;99.90;;;;;;5010740;28;20030;-66
2023/04/12 11:24:45;;;;;;;15.05;3.42;;;13.10;99.90;;;;;;4995204;28;20310;-67
2023/04/12 11:27:11;;;;;;;14.15;3.25;;;13.30;99.90;;;;;;4986695;28;20404;-66
2023/04/12 11:29:37;;;;;;;11.68;2.63;;;13.50;99.90;;;;;;4991745;28;20042;-66
2023/04/12 11:32:09;;;;;;;14.02;3.15;;;13.80;99.90;;;;;;5001320;28;20554;-66
2023/04/12 11:34:35;;;;;;;11.27;3.05;;;14.00;99.90;;;;;;4979553;28;20081;-64
2023/04/12 11:37:09;;;;;;;13.38;3.00;;;14.00;99.90;;;;;;4987665;28;20041;-66
2023/04/12 11:39:37;;;;;;;12.30;3.25;;;13.90;99.90;;;;;;4983932;28;20433;-65
2023/04/12 11:42:03;;;;;;;10.55;3.22;;;13.70;99.90;;;;;;4988665;28;20044;-65
2023/04/12 11:44:32;;;;;;;14.15;3.20;;;13.60;99.90;;;;;;4987102;28;20555;-66
2023/04/12 11:46:58;;;;;;;10.52;2.72;;;13.30;99.90;;;;;;4979872;28;20080;-66
2023/04/12 11:49:24;;;;;;;12.85;3.00;;;13.20;99.90;;;;;;4998041;28;20045;-66
2023/04/12 11:52:03;;;;;;;11.15;3.53;;;13.00;99.90;;;;;;5005537;28;20042;-66
2023/04/12 11:54:30;;;;;;;14.80;2.75;;;12.90;99.90;;;;;;4999492;28;20038;-67
2023/04/12 11:56:57;;;;;;;9.55;2.70;;;12.80;99.90;;;;;;5008142;28;20062;-66
2023/04/12 11:59:32;;;;;;;16.17;3.08;;;12.80;99.90;;;;;;5001282;28;20550;-66
2023/04/12 12:02:00;;;;;;;12.38;2.97;;;12.80;99.90;;;;;;5000332;28;20074;-66
2023/04/12 12:04:28;;;;;;;12.77;2.90;;;13.20;99.90;;;;;;4987845;28;20054;-66
2023/04/12 12:06:56;;;;;;;12.98;3.20;;;13.50;99.90;;;;;;4979347;28;20034;-66
2023/04/12 12:09:22;;;;;;;12.63;2.53;;;13.70;99.90;;;;;;5010393;28;20096;-66
2023/04/12 12:11:48;;;;;;;11.32;2.15;;;13.60;99.90;;;;;;5004141;28;20104;-66
2023/04/12 12:14:18;;;;;;;12.43;2.78;;;13.50;99.90;;;;;;5004621;28;20030;-66
2023/04/12 12:16:55;;;;;;;13.43;2.85;;;13.40;99.90;;;;;;4990237;28;20484;-65
2023/04/12 12:19:38;;;;;;;9.90;2.58;;;13.20;99.90;;;;;;5008701;28;20052;-66
2023/04/12 12:22:13;;;;;;;15.77;2.58;;;13.00;99.90;;;;;;4999537;28;20030;-66
2023/04/12 12:24:45;;;;;;;11.98;2.60;;;12.90;99.90;;;;;;4996095;28;20089;-66
2023/04/12 12:27:11;;;;;;;16.08;3.50;;;12.70;99.90;;;;;;4981997;28;20030;-67
2023/04/12 12:29:37;;;;;;;13.48;2.80;;;12.60;99.90;;;;;;4995934;28;20503;-66
2023/04/12 12:32:12;;;;;;;15.40;3.45;;;12.50;99.90;;;;;;4991343;28;20034;-66
2023/04/12 12:34:39;;;;;;;15.80;3.35;;;12.40;99.90;;;;;;5003043;28;20043;-66
2023/04/12 12:37:11;;;;;;;11.00;2.60;;;12.40;99.90;;;;;;5000609;28;20507;-66
2023/04/12 12:39:37;;;;;;;12.63;3.28;;;12.30;99.90;;;;;;4993423;28;20054;-66
2023/04/12 12:42:05;;;;;;;17.30;3.45;;;12.40;99.90;;;;;;5005998;28;20068;-66
2023/04/12 12:44:31;;;;;;;15.05;2.85;;;12.60;99.90;;;;;;4982573;28;20076;-65
2023/04/12 12:47:00;;;;;;;15.57;2.92;;;12.80;99.90;;;;;;4997885;28;20034;-66
2023/04/12 12:49:26;;;;;;;14.82;3.10;;;12.80;99.90;;;;;;4995328;28;20058;-66
2023/04/12 12:51:52;;;;;;;13.15;2.83;;;12.60;99.90;;;;;;4999917;28;20496;-66
2023/04/12 12:54:18;;;;;;;16.77;3.30;;;12.80;99.90;;;;;;4992021;28;20027;-67